Time;durP1;ratioP1;P1;durP2;ratioP2;P2;SDS_P1;SDS_P2;PMS_P1;PMS_P2;Temp;Humidity;BMP_temperature;BMP_pressure;BME280_temperature;BME280_humidity;BME280_pressure;Samples;Min_cycle;Max_cycle;Signal;HPM_P1;HPM_P2
2022/06/08 00:00:00;;;;;;;9.88;6.15;;;11.30;99.90;;;;;;4950428;28;20038;-61
2022/06/08 00:02:30;;;;;;;12.43;7.47;;;11.30;99.90;;;;;;4949044;28;20054;-59
2022/06/08 00:04:56;;;;;;;10.00;6.35;;;11.20;99.90;;;;;;4970024;28;20052;-60
2022/06/08 00:07:21;;;;;;;14.88;7.45;;;11.20;99.90;;;;;;4956753;28;20093;-59
2022/06/08 00:09:47;;;;;;;10.48;6.70;;;11.20;99.90;;;;;;4969773;28;20046;-61
2022/06/08 00:12:13;;;;;;;13.25;7.50;;;11.20;99.90;;;;;;4962367;28;20520;-60
2022/06/08 00:14:39;;;;;;;9.93;7.07;;;11.20;99.90;;;;;;4970379;28;20042;-60
2022/06/08 00:17:05;;;;;;;12.25;7.72;;;11.10;99.90;;;;;;4968262;28;20073;-60
2022/06/08 00:19:31;;;;;;;11.35;8.25;;;11.10;99.90;;;;;;4963270;28;20438;-60
2022/06/08 00:21:57;;;;;;;8.32;7.03;;;11.10;99.90;;;;;;4970816;28;20035;-61
2022/06/08 00:24:23;;;;;;;12.68;8.85;;;11.10;99.90;;;;;;4963791;28;20050;-59
2022/06/08 00:26:49;;;;;;;13.52;8.45;;;11.10;99.90;;;;;;4965925;28;20116;-59
2022/06/08 00:29:15;;;;;;;17.23;8.88;;;11.10;99.90;;;;;;4969723;28;20086;-61
2022/06/08 00:31:40;;;;;;;10.20;7.30;;;11.00;99.90;;;;;;4967175;28;20038;-60
2022/06/08 00:34:07;;;;;;;15.10;8.43;;;11.10;99.90;;;;;;4973314;28;20045;-61
2022/06/08 00:36:33;;;;;;;12.63;7.50;;;11.10;99.90;;;;;;4970525;28;20058;-60
2022/06/08 00:38:59;;;;;;;12.75;8.20;;;11.10;99.90;;;;;;4972690;28;20437;-60
2022/06/08 00:41:48;;;;;;;8.05;6.75;;;11.10;99.90;;;;;;4972988;28;20049;-61
2022/06/08 00:44:21;;;;;;;12.48;7.95;;;11.10;99.90;;;;;;4938285;28;20500;-60
2022/06/08 00:46:48;;;;;;;13.63;7.93;;;11.00;99.90;;;;;;4971130;28;20041;-58
2022/06/08 00:49:43;;;;;;;15.38;8.27;;;11.00;99.90;;;;;;4969829;28;20376;-59
2022/06/08 00:52:11;;;;;;;14.55;8.52;;;11.00;99.90;;;;;;4971248;28;20042;-59
2022/06/08 00:54:44;;;;;;;8.80;6.75;;;11.00;99.90;;;;;;4968058;28;20058;-61
2022/06/08 00:57:20;;;;;;;11.52;7.00;;;11.00;99.90;;;;;;4969974;28;20045;-60
2022/06/08 00:59:54;;;;;;;10.45;6.93;;;11.00;99.90;;;;;;4933468;28;20047;-60
2022/06/08 01:02:20;;;;;;;10.55;6.85;;;11.00;99.90;;;;;;4963386;28;20050;-61
2022/06/08 01:04:46;;;;;;;14.18;8.23;;;10.90;99.90;;;;;;4971000;28;20038;-60
2022/06/08 01:07:18;;;;;;;10.75;7.05;;;10.90;99.90;;;;;;4972178;28;20049;-60
2022/06/08 01:09:45;;;;;;;8.60;6.45;;;10.90;99.90;;;;;;4959760;28;20112;-59
2022/06/08 01:12:15;;;;;;;7.97;7.03;;;10.90;99.90;;;;;;4959158;28;20121;-59
2022/06/08 01:14:41;;;;;;;9.00;7.47;;;10.80;99.90;;;;;;4970937;28;20121;-60
2022/06/08 01:17:17;;;;;;;8.32;6.38;;;10.80;99.90;;;;;;4969813;28;20027;-61
2022/06/08 01:19:46;;;;;;;13.80;8.10;;;10.80;99.90;;;;;;4973942;28;20417;-60
2022/06/08 01:22:15;;;;;;;9.77;6.47;;;10.80;99.90;;;;;;4974130;28;20446;-59
2022/06/08 01:24:45;;;;;;;11.65;8.25;;;10.70;99.90;;;;;;4970828;28;20486;-60
2022/06/08 01:27:17;;;;;;;10.63;7.32;;;10.70;99.90;;;;;;4957595;28;20038;-60
2022/06/08 01:29:57;;;;;;;8.93;7.88;;;10.70;99.90;;;;;;4978973;28;20135;-60
2022/06/08 01:32:34;;;;;;;14.63;9.68;;;10.70;99.90;;;;;;4963645;28;20050;-60
2022/06/08 01:35:11;;;;;;;18.00;9.15;;;10.80;99.90;;;;;;4951205;28;20046;-59
2022/06/08 01:38:01;;;;;;;12.45;8.60;;;10.80;99.90;;;;;;4983669;28;20092;-59
2022/06/08 01:40:55;;;;;;;11.95;8.68;;;10.80;99.90;;;;;;4967528;28;20773;-59
2022/06/08 01:43:44;;;;;;;14.25;7.95;;;10.90;99.90;;;;;;4966502;28;20034;-59
2022/06/08 01:46:28;;;;;;;13.90;7.90;;;10.90;99.90;;;;;;4966202;28;20049;-59
2022/06/08 01:49:15;;;;;;;12.48;9.25;;;10.90;99.90;;;;;;4955028;28;20114;-59
2022/06/08 01:51:53;;;;;;;14.23;8.30;;;11.00;99.90;;;;;;4964346;28;20042;-59
2022/06/08 01:54:33;;;;;;;11.55;7.95;;;11.00;99.90;;;;;;4953237;28;20353;-57
2022/06/08 01:57:05;;;;;;;14.70;9.30;;;11.10;99.90;;;;;;4956975;28;20050;-59
2022/06/08 02:00:09;;;;;;;13.77;8.80;;;11.10;99.90;;;;;;4966572;28;20564;-58
2022/06/08 02:03:16;;;;;;;13.82;8.32;;;11.20;99.90;;;;;;4958031;28;20161;-57
2022/06/08 02:06:00;;;;;;;14.57;7.97;;;11.20;99.90;;;;;;4971483;28;20192;-58
2022/06/08 02:08:45;;;;;;;12.63;8.73;;;11.20;99.90;;;;;;4969786;28;20162;-58
2022/06/08 02:11:39;;;;;;;14.90;9.43;;;11.20;99.90;;;;;;4971150;28;20497;-58
2022/06/08 02:14:19;;;;;;;13.15;8.50;;;11.10;99.90;;;;;;4972116;28;20240;-59
2022/06/08 02:16:52;;;;;;;9.65;6.85;;;11.20;99.90;;;;;;4953721;28;20132;-58
2022/06/08 02:19:51;;;;;;;15.50;9.18;;;11.10;99.90;;;;;;4973759;28;20093;-59
2022/06/08 02:22:23;;;;;;;11.68;8.85;;;11.10;99.90;;;;;;4951055;28;20529;-58
2022/06/08 02:24:58;;;;;;;14.05;9.88;;;11.10;99.90;;;;;;4971817;28;20050;-59
2022/06/08 02:27:35;;;;;;;13.43;8.32;;;11.10;99.90;;;;;;4972048;28;20494;-59
2022/06/08 02:30:07;;;;;;;14.38;9.00;;;11.00;99.90;;;;;;4970524;28;20038;-58
2022/06/08 02:35:32;;;;;;;13.48;9.77;;;10.90;99.90;;;;;;4966574;28;20073;-59
2022/06/08 02:38:13;;;;;;;15.00;9.80;;;10.90;99.90;;;;;;4968778;28;20045;-59
2022/06/08 02:40:45;;;;;;;14.43;9.73;;;10.90;99.90;;;;;;4977084;28;20902;-62
2022/06/08 02:43:40;;;;;;;18.02;10.43;;;10.90;99.90;;;;;;4977482;28;20033;-59
2022/06/08 02:46:21;;;;;;;16.52;10.25;;;10.90;99.90;;;;;;4956646;28;20181;-58
2022/06/08 02:48:46;;;;;;;17.48;10.45;;;10.90;99.90;;;;;;4957667;28;20374;-59
2022/06/08 02:51:12;;;;;;;20.73;11.57;;;10.90;99.90;;;;;;4969334;28;20104;-58
2022/06/08 02:53:45;;;;;;;13.88;9.52;;;10.90;99.90;;;;;;4964839;28;20053;-57
2022/06/08 02:56:18;;;;;;;12.32;10.10;;;10.90;99.90;;;;;;4953403;28;20042;-59
2022/06/08 02:59:03;;;;;;;17.17;10.55;;;10.90;99.90;;;;;;4951929;28;20038;-59
2022/06/08 03:01:42;;;;;;;16.35;11.38;;;11.00;99.90;;;;;;4936897;28;20051;-57
2022/06/08 03:04:14;;;;;;;19.05;11.10;;;11.00;99.90;;;;;;4949922;28;20061;-59
2022/06/08 03:06:48;;;;;;;18.30;11.15;;;11.00;99.90;;;;;;4942397;28;20104;-59
2022/06/08 03:09:16;;;;;;;17.90;11.05;;;11.00;99.90;;;;;;4961195;28;20610;-58
2022/06/08 03:11:45;;;;;;;19.15;11.27;;;11.00;99.90;;;;;;4956089;28;20405;-59
2022/06/08 03:14:14;;;;;;;16.27;12.93;;;11.00;99.90;;;;;;4965397;28;20043;-59
2022/06/08 03:17:05;;;;;;;13.85;10.60;;;11.00;99.90;;;;;;4949799;28;20165;-58
2022/06/08 03:19:32;;;;;;;17.50;11.40;;;11.00;99.90;;;;;;4964449;28;20053;-58
2022/06/08 03:21:58;;;;;;;18.85;11.68;;;11.00;99.90;;;;;;4962995;28;20046;-58
2022/06/08 03:24:25;;;;;;;17.02;12.40;;;11.00;99.90;;;;;;4965529;28;20049;-58
2022/06/08 03:27:04;;;;;;;19.50;13.27;;;11.00;99.90;;;;;;4954324;28;20123;-58
2022/06/08 03:29:31;;;;;;;19.17;13.30;;;11.10;99.90;;;;;;4948618;28;20046;-62
2022/06/08 03:31:57;;;;;;;21.20;13.93;;;11.10;99.90;;;;;;4965958;28;20097;-57
2022/06/08 03:34:23;;;;;;;21.27;13.30;;;11.10;99.90;;;;;;4949872;28;20069;-58
2022/06/08 03:36:49;;;;;;;23.88;13.77;;;11.10;99.90;;;;;;4962382;28;20042;-58
2022/06/08 03:39:15;;;;;;;21.63;14.82;;;11.20;99.90;;;;;;4957065;28;20038;-59
2022/06/08 03:41:44;;;;;;;18.13;13.32;;;11.20;99.90;;;;;;4938545;28;20460;-59
2022/06/08 03:44:10;;;;;;;19.80;13.90;;;11.30;99.90;;;;;;4969710;28;20141;-59
2022/06/08 03:46:40;;;;;;;19.73;13.82;;;11.40;99.90;;;;;;4970222;28;20116;-58
2022/06/08 03:49:07;;;;;;;20.65;13.70;;;11.40;99.90;;;;;;4968662;28;20061;-57
2022/06/08 03:51:34;;;;;;;20.15;13.57;;;11.50;99.90;;;;;;4960528;28;20378;-58
2022/06/08 03:54:09;;;;;;;18.70;14.85;;;11.50;99.90;;;;;;4974986;28;20051;-57
2022/06/08 03:56:38;;;;;;;22.83;14.63;;;11.60;99.90;;;;;;4971331;28;20062;-58
2022/06/08 03:59:04;;;;;;;21.80;14.45;;;11.60;99.90;;;;;;4968272;28;20494;-60
2022/06/08 04:01:30;;;;;;;19.67;15.40;;;11.70;99.90;;;;;;4969419;28;20401;-60
2022/06/08 04:03:57;;;;;;;25.17;14.65;;;11.60;99.90;;;;;;4940094;28;20117;-61
2022/06/08 04:06:24;;;;;;;19.85;14.82;;;11.70;99.90;;;;;;4975812;28;20054;-60
2022/06/08 04:08:50;;;;;;;23.35;14.52;;;11.70;99.90;;;;;;4974330;28;20034;-61
2022/06/08 04:11:16;;;;;;;24.17;16.23;;;11.80;99.90;;;;;;4942849;28;20129;-59
2022/06/08 04:13:42;;;;;;;22.00;15.75;;;11.90;99.90;;;;;;4965739;28;20118;-61
2022/06/08 04:16:08;;;;;;;23.17;15.68;;;12.00;99.90;;;;;;4956103;28;20775;-61
2022/06/08 04:18:34;;;;;;;21.83;15.40;;;12.00;99.90;;;;;;4972809;28;20416;-59
2022/06/08 04:21:03;;;;;;;29.77;16.45;;;12.10;99.90;;;;;;4961111;28;20038;-61
2022/06/08 04:23:31;;;;;;;22.90;16.13;;;12.20;99.90;;;;;;4953344;28;20520;-60
2022/06/08 04:25:58;;;;;;;23.15;16.52;;;12.30;99.90;;;;;;4968232;28;20043;-61
2022/06/08 04:28:25;;;;;;;24.30;16.67;;;12.30;99.90;;;;;;4967236;28;20054;-61
2022/06/08 04:30:52;;;;;;;22.70;15.88;;;12.40;99.90;;;;;;4954834;28;20047;-61
2022/06/08 04:33:18;;;;;;;22.05;16.88;;;12.40;99.90;;;;;;4972372;28;20050;-59
2022/06/08 04:35:44;;;;;;;25.30;17.23;;;12.50;99.90;;;;;;4974368;28;20383;-58
2022/06/08 04:38:11;;;;;;;22.88;15.90;;;12.50;99.90;;;;;;4940491;28;20389;-59
2022/06/08 04:40:39;;;;;;;23.75;17.60;;;12.50;99.90;;;;;;4969914;28;20180;-57
2022/06/08 04:43:05;;;;;;;25.42;15.60;;;12.60;99.90;;;;;;4935190;28;20039;-61
2022/06/08 04:45:46;;;;;;;26.27;17.98;;;12.60;99.90;;;;;;4986277;23;20120;-89
2022/06/08 04:48:12;;;;;;;23.77;16.98;;;12.60;99.90;;;;;;4974987;28;20042;-84
2022/06/08 04:50:38;;;;;;;23.83;17.42;;;12.70;99.90;;;;;;4973030;28;20118;-84
2022/06/08 04:53:04;;;;;;;24.60;16.85;;;12.70;99.90;;;;;;4964835;28;20042;-84
2022/06/08 04:55:31;;;;;;;24.52;17.38;;;12.80;99.90;;;;;;4979760;28;20402;-83
2022/06/08 04:58:09;;;;;;;23.65;18.35;;;12.80;99.90;;;;;;4990065;28;20042;-88
2022/06/08 05:00:34;;;;;;;24.27;17.02;;;12.90;99.90;;;;;;4975934;28;20038;-84
2022/06/08 05:03:01;;;;;;;25.70;18.40;;;12.90;99.90;;;;;;4978060;28;20517;-84
2022/06/08 05:05:30;;;;;;;22.58;17.13;;;13.00;99.90;;;;;;4969031;28;20051;-84
2022/06/08 05:07:57;;;;;;;23.95;17.42;;;13.00;99.90;;;;;;4991368;28;20039;-84
2022/06/08 05:10:42;;;;;;;24.20;17.95;;;13.10;99.90;;;;;;5008415;28;20182;-84
2022/06/08 05:13:10;;;;;;;27.88;19.23;;;13.10;99.90;;;;;;4988776;28;20046;-83
2022/06/08 05:15:39;;;;;;;28.25;18.83;;;13.20;99.90;;;;;;4991204;28;20039;-83
2022/06/08 05:18:06;;;;;;;30.58;18.35;;;13.20;99.90;;;;;;4967613;23;20038;-55
2022/06/08 05:20:36;;;;;;;24.05;18.65;;;13.30;99.90;;;;;;4938604;28;20050;-61
2022/06/08 05:23:04;;;;;;;24.90;17.45;;;13.30;99.90;;;;;;4955666;28;20324;-56
2022/06/08 05:25:35;;;;;;;23.45;17.77;;;13.40;99.90;;;;;;4973624;28;20126;-57
2022/06/08 05:28:01;;;;;;;23.58;18.08;;;13.40;99.90;;;;;;4969092;28;20065;-57
2022/06/08 05:30:26;;;;;;;31.20;18.50;;;13.50;99.90;;;;;;4948111;28;20624;-57
2022/06/08 05:32:53;;;;;;;27.40;18.17;;;13.60;99.90;;;;;;4937913;28;20043;-63
2022/06/08 05:35:20;;;;;;;23.52;17.75;;;13.60;99.90;;;;;;4941098;28;20039;-58
2022/06/08 05:37:46;;;;;;;24.70;17.98;;;13.70;99.90;;;;;;4955362;28;20468;-59
2022/06/08 05:40:12;;;;;;;28.20;19.65;;;13.70;99.90;;;;;;4954514;28;20038;-58
2022/06/08 05:42:38;;;;;;;25.48;19.02;;;13.80;99.90;;;;;;4950162;28;20058;-58
2022/06/08 05:45:05;;;;;;;27.33;18.00;;;13.90;99.90;;;;;;4954566;28;20182;-61
2022/06/08 05:47:31;;;;;;;25.45;18.67;;;14.00;99.90;;;;;;4966985;28;20497;-63
2022/06/08 05:49:57;;;;;;;24.73;18.02;;;14.10;99.90;;;;;;4970692;28;20069;-59
2022/06/08 05:52:23;;;;;;;22.65;17.50;;;14.20;99.90;;;;;;4970627;28;20072;-59
2022/06/08 05:54:48;;;;;;;26.58;18.88;;;14.40;99.90;;;;;;4938926;28;20254;-59
2022/06/08 05:57:14;;;;;;;22.88;18.23;;;14.50;99.90;;;;;;4972475;28;20231;-58
2022/06/08 05:59:40;;;;;;;24.63;17.83;;;14.60;99.90;;;;;;4940922;28;20074;-56
2022/06/08 06:02:11;;;;;;;25.13;17.52;;;14.60;99.90;;;;;;4969901;28;20046;-61
2022/06/08 06:04:36;;;;;;;22.73;17.40;;;14.70;99.90;;;;;;4954854;28;20043;-60
2022/06/08 06:07:03;;;;;;;23.60;17.50;;;14.80;99.90;;;;;;4976157;28;20046;-55
2022/06/08 06:09:28;;;;;;;22.90;17.08;;;14.90;99.90;;;;;;4972218;28;20093;-59
2022/06/08 06:11:54;;;;;;;22.08;17.98;;;15.00;99.90;;;;;;4958173;28;20516;-59
2022/06/08 06:14:20;;;;;;;23.88;17.65;;;15.10;99.90;;;;;;4957491;28;20042;-60
2022/06/08 06:16:46;;;;;;;23.05;17.13;;;15.10;99.90;;;;;;4958899;28;20468;-64
2022/06/08 06:19:12;;;;;;;24.95;17.00;;;15.10;99.90;;;;;;4949590;28;20038;-61
2022/06/08 06:21:37;;;;;;;23.45;16.25;;;15.10;99.90;;;;;;4959692;28;20505;-57
2022/06/08 06:24:04;;;;;;;23.02;17.33;;;15.10;99.90;;;;;;4953288;28;20493;-59
2022/06/08 06:26:31;;;;;;;22.90;16.90;;;15.20;99.90;;;;;;4924797;28;20100;-59
2022/06/08 06:28:57;;;;;;;23.65;16.85;;;15.30;99.90;;;;;;4957000;28;20520;-59
2022/06/08 06:31:25;;;;;;;25.55;17.60;;;15.40;99.90;;;;;;4955332;28;20050;-63
2022/06/08 06:33:51;;;;;;;23.25;16.23;;;15.50;99.90;;;;;;4968314;28;20064;-58
2022/06/08 06:36:16;;;;;;;22.85;16.40;;;15.50;99.90;;;;;;4951721;28;20042;-58
2022/06/08 06:38:42;;;;;;;19.73;15.27;;;15.70;99.90;;;;;;4952561;28;20120;-58
2022/06/08 06:41:09;;;;;;;21.17;14.90;;;15.80;99.90;;;;;;4953416;28;20069;-58
2022/06/08 06:43:35;;;;;;;20.80;14.90;;;15.80;99.90;;;;;;4960215;28;20057;-57
2022/06/08 06:46:02;;;;;;;18.65;14.52;;;15.90;99.90;;;;;;4950864;28;20059;-63
2022/06/08 06:48:29;;;;;;;17.23;14.05;;;16.00;99.90;;;;;;4972828;28;20389;-61
2022/06/08 06:50:54;;;;;;;17.88;13.80;;;16.10;99.90;;;;;;4956464;28;20066;-56
2022/06/08 06:53:20;;;;;;;18.30;14.32;;;16.10;99.90;;;;;;4974723;28;20065;-59
2022/06/08 06:55:46;;;;;;;19.80;14.30;;;16.20;99.90;;;;;;4970776;28;20042;-59
2022/06/08 06:58:11;;;;;;;17.17;13.02;;;16.20;99.90;;;;;;4932960;28;20538;-58
2022/06/08 07:00:37;;;;;;;15.82;12.98;;;16.30;99.90;;;;;;4968900;28;20038;-62
2022/06/08 07:03:04;;;;;;;18.77;13.57;;;16.30;99.90;;;;;;4956866;28;20068;-63
2022/06/08 07:05:33;;;;;;;17.98;13.55;;;16.30;99.90;;;;;;4949428;28;20184;-59
2022/06/08 07:07:59;;;;;;;17.23;13.73;;;16.40;99.90;;;;;;4972682;28;20076;-58
2022/06/08 07:10:25;;;;;;;16.45;14.13;;;16.50;99.90;;;;;;4940700;28;20491;-58
2022/06/08 07:12:50;;;;;;;16.95;13.05;;;16.50;99.90;;;;;;4940027;28;20084;-60
2022/06/08 07:15:19;;;;;;;16.45;12.82;;;16.60;99.90;;;;;;4938223;28;20069;-63
2022/06/08 07:17:44;;;;;;;18.00;11.77;;;16.60;99.90;;;;;;4951158;28;20042;-62
2022/06/08 07:20:12;;;;;;;20.80;13.25;;;16.60;99.90;;;;;;4958150;28;22489;-59
2022/06/08 07:22:38;;;;;;;16.13;12.55;;;16.60;99.90;;;;;;4967122;28;20117;-57
2022/06/08 07:25:06;;;;;;;18.58;12.45;;;16.60;99.90;;;;;;4968930;28;20279;-58
2022/06/08 07:27:32;;;;;;;15.52;10.98;;;16.60;99.90;;;;;;4950685;28;20105;-56
2022/06/08 07:29:58;;;;;;;17.30;12.63;;;16.70;99.90;;;;;;4947508;28;20449;-63
2022/06/08 07:32:23;;;;;;;17.35;11.70;;;16.70;99.90;;;;;;4945809;28;20568;-60
2022/06/08 07:34:49;;;;;;;15.00;11.75;;;16.70;99.90;;;;;;4952479;28;20080;-57
2022/06/08 07:37:15;;;;;;;14.45;11.40;;;16.80;99.90;;;;;;4944695;28;20049;-57
2022/06/08 07:39:40;;;;;;;18.00;12.40;;;16.80;99.90;;;;;;4960564;28;20034;-60
2022/06/08 07:42:06;;;;;;;15.35;11.90;;;16.80;99.90;;;;;;4952980;28;20046;-57
2022/06/08 07:44:32;;;;;;;17.17;12.07;;;16.90;99.90;;;;;;4971971;28;20227;-56
2022/06/08 07:46:58;;;;;;;15.77;11.63;;;16.90;99.90;;;;;;4961877;28;20034;-61
2022/06/08 07:49:36;;;;;;;15.85;11.55;;;16.90;99.90;;;;;;4963516;28;20035;-60
2022/06/08 07:52:06;;;;;;;15.63;11.65;;;16.90;99.90;;;;;;4957531;28;20050;-58
2022/06/08 07:54:32;;;;;;;16.60;11.63;;;17.00;99.90;;;;;;4976765;28;20043;-59
2022/06/08 07:56:59;;;;;;;16.42;11.75;;;17.00;99.90;;;;;;4961024;28;20062;-64
2022/06/08 07:59:29;;;;;;;14.68;10.80;;;17.00;99.90;;;;;;4958425;28;20288;-61
2022/06/08 08:01:55;;;;;;;13.35;10.88;;;17.00;99.90;;;;;;4961154;28;20038;-58
2022/06/08 08:04:21;;;;;;;12.43;9.73;;;17.10;99.90;;;;;;4977752;28;20053;-59
2022/06/08 08:06:48;;;;;;;14.35;10.00;;;17.20;99.90;;;;;;4964785;28;20124;-58
2022/06/08 08:09:17;;;;;;;12.38;9.90;;;17.40;99.90;;;;;;4960145;28;20142;-59
2022/06/08 08:11:45;;;;;;;13.10;10.15;;;17.50;99.90;;;;;;4957732;28;20383;-63
2022/06/08 08:14:13;;;;;;;13.55;9.73;;;17.60;99.90;;;;;;4984131;28;20180;-58
2022/06/08 08:16:39;;;;;;;14.63;9.88;;;17.70;99.90;;;;;;4962344;28;20086;-58
2022/06/08 08:19:05;;;;;;;12.23;8.25;;;17.70;99.90;;;;;;4978401;28;20100;-57
2022/06/08 08:21:32;;;;;;;14.73;8.18;;;17.80;99.90;;;;;;4980097;28;20520;-56
2022/06/08 08:23:59;;;;;;;12.10;8.23;;;17.90;99.90;;;;;;4974628;28;20092;-57
2022/06/08 08:26:26;;;;;;;9.73;7.95;;;18.00;99.90;;;;;;4967583;28;20050;-60
2022/06/08 08:28:53;;;;;;;11.18;7.70;;;18.10;99.90;;;;;;4959188;28;20285;-57
2022/06/08 08:31:19;;;;;;;11.75;7.78;;;18.30;99.90;;;;;;4947490;28;20096;-57
2022/06/08 08:33:45;;;;;;;11.70;7.63;;;18.40;99.90;;;;;;4954283;28;20467;-59
2022/06/08 08:36:11;;;;;;;9.57;7.13;;;18.50;99.90;;;;;;4937803;28;22000;-59
2022/06/08 08:38:40;;;;;;;8.77;7.13;;;18.50;99.90;;;;;;4940467;28;20552;-60
2022/06/08 08:42:20;;;;;;;9.00;6.88;;;18.60;99.90;;;;;;4943077;28;20134;-59
2022/06/08 08:43:52;;;;;;;8.70;6.95;;;18.50;99.90;;;;;;4952543;28;20050;-57
2022/06/08 08:46:34;;;;;;;9.30;7.60;;;18.60;99.90;;;;;;4953089;28;20042;-58
2022/06/08 08:49:33;;;;;;;9.13;7.15;;;18.60;99.90;;;;;;4958974;28;20165;-59
2022/06/08 08:52:05;;;;;;;9.85;6.95;;;18.60;99.90;;;;;;4931840;28;20054;-59
2022/06/08 08:54:34;;;;;;;11.02;7.05;;;18.70;99.90;;;;;;4947621;28;20054;-62
2022/06/08 08:57:12;;;;;;;9.13;7.88;;;18.70;99.90;;;;;;4973828;28;20046;-60
2022/06/08 08:59:42;;;;;;;9.00;7.43;;;18.90;99.90;;;;;;4956759;28;20042;-58
2022/06/08 09:02:13;;;;;;;8.32;6.57;;;19.00;99.90;;;;;;4976086;28;20481;-58
2022/06/08 09:04:47;;;;;;;9.18;7.53;;;19.10;99.90;;;;;;4953997;28;20051;-61
2022/06/08 09:07:18;;;;;;;9.38;6.82;;;19.30;99.90;;;;;;4967262;28;20792;-59
2022/06/08 09:09:45;;;;;;;8.48;6.78;;;19.30;99.90;;;;;;4954137;28;20051;-59
2022/06/08 09:12:20;;;;;;;9.88;7.30;;;19.30;99.90;;;;;;4962972;28;20051;-57
2022/06/08 09:14:50;;;;;;;7.90;6.30;;;19.40;99.90;;;;;;4950728;28;20314;-63
2022/06/08 09:17:19;;;;;;;7.72;5.00;;;19.50;99.90;;;;;;4949956;28;20065;-59
2022/06/08 09:19:50;;;;;;;6.25;4.28;;;19.70;99.90;;;;;;4949113;28;20030;-58
2022/06/08 09:22:25;;;;;;;5.63;4.15;;;19.90;99.90;;;;;;4949578;28;20504;-59
2022/06/08 09:24:51;;;;;;;5.95;3.85;;;19.90;99.90;;;;;;4949669;28;20092;-63
2022/06/08 09:27:33;;;;;;;5.65;4.10;;;19.90;99.90;;;;;;4950593;28;20444;-61
2022/06/08 09:30:08;;;;;;;5.63;4.38;;;19.90;99.90;;;;;;4948338;28;20039;-59
2022/06/08 09:32:46;;;;;;;6.47;4.40;;;19.90;99.90;;;;;;4932222;28;20092;-59
2022/06/08 09:35:35;;;;;;;6.93;4.05;;;19.80;99.90;;;;;;4955600;28;20042;-60
2022/06/08 09:38:11;;;;;;;5.90;4.20;;;19.80;99.90;;;;;;4952849;28;22316;-57
2022/06/08 09:41:13;;;;;;;5.85;4.00;;;19.80;99.90;;;;;;4961963;28;22356;-65
2022/06/08 09:43:54;;;;;;;7.32;4.38;;;19.90;99.90;;;;;;4976113;28;20438;-59
2022/06/08 09:52:51;;;;;;;5.22;3.38;;;20.20;99.90;;;;;;4969303;28;20050;-58
2022/06/08 09:55:29;;;;;;;5.55;3.15;;;20.20;99.90;;;;;;4952248;28;20162;-64
2022/06/08 09:58:27;;;;;;;4.85;3.50;;;20.20;99.90;;;;;;4973019;28;20051;-58
2022/06/08 10:01:18;;;;;;;6.38;3.10;;;20.10;99.90;;;;;;4929714;28;20047;-63
2022/06/08 10:03:49;;;;;;;7.32;3.00;;;20.10;99.90;;;;;;4969567;28;20086;-58
2022/06/08 10:06:53;;;;;;;4.90;3.15;;;20.10;99.90;;;;;;4953838;28;20046;-58
2022/06/08 10:09:58;;;;;;;4.93;2.92;;;20.10;99.90;;;;;;4960444;28;20054;-60
2022/06/08 10:12:29;;;;;;;3.75;3.03;;;20.00;99.90;;;;;;4952658;28;20090;-61
2022/06/08 10:15:15;;;;;;;5.30;3.10;;;19.90;99.90;;;;;;4959814;28;20065;-59
2022/06/08 10:17:57;;;;;;;4.93;3.13;;;19.90;99.90;;;;;;4953796;28;20053;-59
2022/06/08 10:20:25;;;;;;;4.55;2.88;;;19.80;99.90;;;;;;4953053;28;20039;-58
2022/06/08 10:22:58;;;;;;;4.60;3.83;;;19.80;99.90;;;;;;4954399;28;20493;-58
2022/06/08 10:25:43;;;;;;;6.35;4.35;;;19.80;99.90;;;;;;4940615;28;20046;-58
2022/06/08 10:28:53;;;;;;;5.60;3.70;;;19.80;99.90;;;;;;4954586;28;20042;-59
2022/06/08 10:31:24;;;;;;;5.70;3.80;;;19.70;99.90;;;;;;4936749;28;20461;-63
2022/06/08 10:34:05;;;;;;;6.43;4.18;;;19.60;99.90;;;;;;4954031;28;20505;-58
2022/06/08 10:36:33;;;;;;;5.72;3.95;;;19.60;99.90;;;;;;4947418;28;20601;-58
2022/06/08 10:39:01;;;;;;;6.65;3.85;;;19.60;99.90;;;;;;4966232;28;20850;-58
2022/06/08 10:44:36;;;;;;;7.22;5.10;;;19.50;99.90;;;;;;4951343;28;20039;-58
2022/06/08 10:50:01;;;;;;;12.23;7.15;;;19.10;99.90;;;;;;4979801;28;20148;-60
2022/06/08 10:52:47;;;;;;;12.75;7.93;;;18.90;99.90;;;;;;4952093;28;20377;-62
2022/06/08 10:55:18;;;;;;;11.57;7.82;;;18.70;99.90;;;;;;4971697;28;20034;-62
2022/06/08 10:57:49;;;;;;;13.20;8.98;;;18.60;99.90;;;;;;4971125;28;20052;-62
2022/06/08 11:00:18;;;;;;;13.88;8.23;;;18.40;99.90;;;;;;4966671;28;20061;-61
2022/06/08 11:02:51;;;;;;;9.68;7.13;;;18.30;99.90;;;;;;4950534;28;22052;-62
2022/06/08 11:05:19;;;;;;;7.55;6.28;;;18.10;99.90;;;;;;4967126;28;20560;-61
2022/06/08 11:08:21;;;;;;;8.48;6.55;;;18.00;99.90;;;;;;4976205;28;20043;-61
2022/06/08 11:10:53;;;;;;;12.13;8.07;;;18.00;99.90;;;;;;4965247;28;20058;-62
2022/06/08 11:13:22;;;;;;;10.02;8.60;;;18.10;99.90;;;;;;4976726;28;20042;-61
2022/06/08 11:15:47;;;;;;;7.90;7.10;;;18.20;99.90;;;;;;4982076;28;20042;-61
2022/06/08 11:18:21;;;;;;;8.25;6.95;;;18.20;99.90;;;;;;4973514;28;20057;-62
2022/06/08 11:21:05;;;;;;;;;;;18.30;99.90;;;;;;4977135;28;20054;-60
2022/06/08 11:23:38;;;;;;;10.63;7.97;;;18.40;99.90;;;;;;4994689;28;19997;-59
2022/06/08 11:26:23;;;;;;;9.23;7.63;;;18.50;99.90;;;;;;4983481;28;20500;-59
2022/06/08 11:29:10;;;;;;;7.90;6.50;;;18.50;99.90;;;;;;4958406;28;20420;-59
2022/06/08 11:31:36;;;;;;;11.48;8.57;;;18.60;99.90;;;;;;4961619;28;20428;-59
2022/06/08 11:34:17;;;;;;;11.68;8.80;;;18.70;99.90;;;;;;4973423;28;20042;-62
2022/06/08 11:37:22;;;;;;;8.50;7.70;;;18.70;99.90;;;;;;4970173;28;20077;-60
2022/06/08 11:40:09;;;;;;;9.35;8.07;;;18.80;99.90;;;;;;4957475;28;20133;-61
2022/06/08 11:42:58;;;;;;;9.55;7.55;;;18.80;99.90;;;;;;4971293;28;20045;-62
2022/06/08 11:45:42;;;;;;;9.45;8.32;;;18.90;99.90;;;;;;4968038;28;20100;-61
2022/06/08 11:48:16;;;;;;;9.50;7.35;;;18.90;99.90;;;;;;4975700;28;20039;-58
2022/06/08 11:50:48;;;;;;;8.82;7.50;;;19.10;99.90;;;;;;4974414;28;20038;-59
2022/06/08 11:53:28;;;;;;;13.80;7.90;;;19.20;99.90;;;;;;4970243;28;20133;-61
2022/06/08 11:56:21;;;;;;;7.80;6.95;;;19.30;99.90;;;;;;4975376;28;20043;-59
2022/06/08 11:58:52;;;;;;;11.82;9.00;;;19.20;99.90;;;;;;4988039;28;21807;-61
2022/06/08 12:01:22;;;;;;;9.63;8.23;;;19.20;99.90;;;;;;4990644;28;20544;-62
2022/06/08 12:04:00;;;;;;;12.32;8.40;;;19.20;99.90;;;;;;4973411;28;20050;-60
2022/06/08 12:06:32;;;;;;;10.45;7.47;;;19.10;99.90;;;;;;4966119;28;20053;-60
2022/06/08 12:09:10;;;;;;;13.60;9.73;;;19.00;99.90;;;;;;4971029;28;20054;-62
2022/06/08 12:11:40;;;;;;;13.50;8.88;;;18.90;99.90;;;;;;4981759;28;20042;-60
2022/06/08 12:14:36;;;;;;;15.63;9.73;;;18.80;99.90;;;;;;4981585;28;20674;-60
2022/06/08 12:17:24;;;;;;;15.20;11.38;;;18.80;99.90;;;;;;4967204;28;20494;-60
2022/06/08 12:19:54;;;;;;;12.00;9.68;;;18.60;99.90;;;;;;4968046;28;20054;-60
2022/06/08 12:22:32;;;;;;;15.90;10.63;;;18.50;99.90;;;;;;4989655;28;20050;-60
2022/06/08 12:25:13;;;;;;;17.10;11.40;;;18.40;99.90;;;;;;4933837;28;20105;-60
2022/06/08 12:27:46;;;;;;;12.40;10.05;;;18.20;99.90;;;;;;4973484;28;20074;-59
2022/06/08 12:30:32;;;;;;;14.38;10.25;;;18.20;99.90;;;;;;4962819;28;20046;-59
2022/06/08 12:33:19;;;;;;;13.90;10.85;;;18.20;99.90;;;;;;4956536;28;20046;-59
2022/06/08 12:36:11;;;;;;;14.00;11.77;;;18.30;99.90;;;;;;4973917;28;20525;-60
2022/06/08 12:39:08;;;;;;;14.98;10.23;;;18.40;99.90;;;;;;4981875;28;20400;-59
2022/06/08 12:41:46;;;;;;;15.05;11.85;;;18.40;99.90;;;;;;4973928;28;20069;-61
2022/06/08 12:44:20;;;;;;;17.67;11.60;;;18.40;99.90;;;;;;4985104;28;20054;-58
2022/06/08 12:47:12;;;;;;;16.33;14.40;;;18.40;99.90;;;;;;4982715;28;20516;-60
2022/06/08 12:49:44;;;;;;;17.88;15.98;;;18.40;99.90;;;;;;4953382;28;20054;-63
2022/06/08 12:52:21;;;;;;;20.13;18.05;;;18.30;99.90;;;;;;4973605;28;20034;-60
2022/06/08 12:54:46;;;;;;;24.50;21.58;;;18.20;99.90;;;;;;4967930;28;20034;-60
2022/06/08 12:57:16;;;;;;;26.02;23.25;;;18.10;99.90;;;;;;4980162;28;20053;-60
2022/06/08 12:59:42;;;;;;;26.35;23.58;;;17.90;99.90;;;;;;4983378;28;20039;-62
2022/06/08 13:02:23;;;;;;;27.92;25.23;;;17.80;99.90;;;;;;4976821;28;20035;-59
2022/06/08 13:04:50;;;;;;;25.42;22.95;;;17.60;99.90;;;;;;4982270;28;20035;-59
2022/06/08 13:07:19;;;;;;;18.30;16.48;;;17.50;99.90;;;;;;4976535;28;20074;-59
2022/06/08 13:09:48;;;;;;;14.55;13.15;;;17.40;99.90;;;;;;4981626;28;20043;-62
2022/06/08 13:12:24;;;;;;;14.82;12.32;;;17.30;99.90;;;;;;4984018;28;20053;-60
2022/06/08 13:14:51;;;;;;;12.45;10.52;;;17.30;99.90;;;;;;4982957;28;20117;-59
2022/06/08 13:17:17;;;;;;;13.20;11.90;;;17.30;99.90;;;;;;4981959;28;20184;-60